Orenge 7 — JL6148 — position and weather

sailwx.info

Track history (hours):
 
Tides and Currents Weather Stations Pressure Air Temp Water Temp Dewpoint Dewpoint Depression Visibility Wind Speed Wind Dir Waves Ship Positions

Orenge 7

Last reported at 2015-May-24 14:33 UTC. Time now 2015-May-25 17:33 UTC.
Position N 34°37' E 134°56'.

Length 163 m; draft 4.9 m.

Type: Passenger vessel. MMSI: 431500186.

Date/timePositionNaut miles runAvg speedWind from/ knotsBaromVisibWave heightAir tempDewpointWater temp
2015-May-24 14:33N 34°37' E 134°56'1818.4
2015-May-24 13:33N 34°36' E 135°18'6 5.8
2015-May-24 12:29N 34°37' E 135°26'0 0.0
2015-May-24 11:29N 34°37' E 135°26'0 0.0
2015-May-24 10:29N 34°37' E 135°26'0 0.0
2015-May-24 09:23N 34°37' E 135°26'0 0.0
2015-May-24 08:29N 34°37' E 135°26'0 0.0
2015-May-24 07:29N 34°37' E 135°26'0 0.0
2015-May-24 06:23N 34°37' E 135°26'0 0.0
2015-May-24 05:17N 34°37' E 135°26'0 0.0
2015-May-24 04:29N 34°37' E 135°26'0 0.0
2015-May-24 03:29N 34°37' E 135°26'0 0.0
2015-May-24 02:29N 34°37' E 135°26'0 0.0
2015-May-24 01:29N 34°37' E 135°26'0 0.0
2015-May-24 00:29N 34°37' E 135°26'0 0.0
2015-May-23 23:29N 34°37' E 135°26'0 0.0
2015-May-23 22:17N 34°37' E 135°26'0 0.0
2015-May-23 21:29N 34°37' E 135°26'5 5.6
2015-May-23 20:33N 34°36' E 135°20'1717.3
2015-May-23 19:33N 34°37' E 134°59'3 0.1
2015-May-22 14:33N 34°36' E 134°56'1918.7
2015-May-22 13:33N 34°37' E 135°18'6 6.2
2015-May-22 12:31N 34°37' E 135°26'0 0.0
2015-May-22 11:31N 34°37' E 135°26'0 0.0
2015-May-22 10:19N 34°37' E 135°26'0 0.0
2015-May-22 09:31N 34°37' E 135°26'0 0.0
2015-May-22 08:19N 34°37' E 135°26'0 0.0
2015-May-22 07:25N 34°37' E 135°26'0 0.0
2015-May-22 06:31N 34°37' E 135°26'0 0.0
2015-May-22 05:31N 34°37' E 135°26'0 0.0
2015-May-22 04:19N 34°37' E 135°26'0 0.0
2015-May-22 03:31N 34°37' E 135°26'0 0.0
2015-May-22 02:31N 34°37' E 135°26'0 0.0
2015-May-22 01:19N 34°37' E 135°26'0 0.0
2015-May-22 00:31N 34°37' E 135°26'0 0.0
2015-May-21 23:31N 34°37' E 135°26'0 0.0
2015-May-21 21:31N 34°37' E 135°26'6 5.8
2015-May-21 20:33N 34°35' E 135°19'1717.0
2015-May-21 19:33N 34°37' E 134°59'4 0.1
2015-May-20 14:34N 34°37' E 134°54'2019.9
2015-May-20 13:33N 34°37' E 135°19'6 5.4
2015-May-20 12:26N 34°37' E 135°26'0 0.0
2015-May-20 11:32N 34°37' E 135°26'0 0.0
2015-May-20 10:32N 34°37' E 135°26'0 0.0
2015-May-20 09:32N 34°37' E 135°26'0 0.0
2015-May-20 08:32N 34°37' E 135°26'0 0.0
2015-May-20 07:26N 34°37' E 135°26'0 0.0
2015-May-20 06:32N 34°37' E 135°26'0 0.0
2015-May-20 05:26N 34°37' E 135°26'0 0.0
2015-May-20 04:26N 34°37' E 135°26'0 0.0
2015-May-20 03:32N 34°37' E 135°26'0 0.0
2015-May-20 02:26N 34°37' E 135°26'0 0.0
2015-May-20 01:32N 34°37' E 135°26'0 0.0
2015-May-20 00:32N 34°37' E 135°26'0 0.0
2015-May-19 23:17N 34°37' E 135°26'0 0.0
2015-May-19 22:23N 34°37' E 135°26'0 0.0
2015-May-19 21:23N 34°37' E 135°26'5 5.8
2015-May-19 20:33N 34°36' E 135°20'1717.3
2015-May-19 19:33N 34°37' E 134°59'2 0.1
2015-May-18 14:33N 34°37' E 134°56'1818.6
2015-May-18 13:34N 34°36' E 135°18'6 5.7
2015-May-18 12:29N 34°37' E 135°26'0 0.0
2015-May-18 11:29N 34°37' E 135°26'0 0.0
2015-May-18 10:23N 34°37' E 135°26'0 0.0
2015-May-18 09:29N 34°37' E 135°26'0 0.0
2015-May-18 08:29N 34°37' E 135°26'0 0.0
2015-May-18 07:11N 34°37' E 135°26'0 0.0
2015-May-18 06:29N 34°37' E 135°26'0 0.0
2015-May-18 05:23N 34°37' E 135°26'0 0.0
2015-May-18 04:29N 34°37' E 135°26'0 0.0
2015-May-18 03:29N 34°37' E 135°26'0 0.0
2015-May-18 02:29N 34°37' E 135°26'0 0.0
2015-May-18 01:17N 34°37' E 135°26'0 0.0
2015-May-18 00:23N 34°37' E 135°26'0 0.0
2015-May-17 23:29N 34°37' E 135°26'0 0.0
2015-May-17 22:29N 34°37' E 135°26'0 0.0
2015-May-17 21:29N 34°37' E 135°26'6 6.1
2015-May-17 20:33N 34°35' E 135°19'1716.4
2015-May-17 19:31N 34°37' E 134°59'1918.7
2015-May-17 18:29N 34°28' E 134°38'18 0.6
2015-May-16 14:33N 34°37' E 134°57'1717.6
2015-May-16 13:33N 34°36' E 135°18'6 5.8
2015-May-16 12:29N 34°37' E 135°26'0 0.0
2015-May-16 11:29N 34°37' E 135°26'0 0.0
2015-May-16 10:29N 34°37' E 135°26'0 0.0
2015-May-16 09:29N 34°37' E 135°26'0 0.0
2015-May-16 08:29N 34°37' E 135°26'0 0.0
2015-May-16 07:17N 34°37' E 135°26'0 0.0
2015-May-16 06:17N 34°37' E 135°26'0 0.0
2015-May-16 05:29N 34°37' E 135°26'0 0.0
2015-May-16 04:17N 34°37' E 135°26'0 0.0
2015-May-16 03:29N 34°37' E 135°26'0 0.0
2015-May-16 02:17N 34°37' E 135°26'0 0.0
2015-May-16 01:29N 34°37' E 135°26'0 0.0
2015-May-15 23:11N 34°37' E 135°26'0 0.0
2015-May-15 22:17N 34°37' E 135°26'0 0.0
2015-May-15 21:11N 34°37' E 135°26'5 8.0
2015-May-15 20:33N 34°36' E 135°20'1716.7
2015-May-15 19:33N 34°37' E 134°60'  
Track history (hours):
 
Tides and Currents Weather Stations Pressure Air Temp Water Temp Dewpoint Dewpoint Depression Visibility Wind Speed Wind Dir Waves Ship Positions

Orenge 7

Last reported at 2015-May-24 14:33 UTC. Time now 2015-May-25 17:33 UTC.
Position N 34°37' E 134°56'.

Length 163 m; draft 4.9 m.

Type: Passenger vessel. MMSI: 431500186.

Date/timePositionNaut miles runAvg speedWind from/ knotsBaromVisibWave heightAir tempDewpointWater temp
2015-May-24 14:33N 34°37' E 134°56'1818.4
2015-May-24 13:33N 34°36' E 135°18'6 5.8
2015-May-24 12:29N 34°37' E 135°26'0 0.0
2015-May-24 11:29N 34°37' E 135°26'0 0.0
2015-May-24 10:29N 34°37' E 135°26'0 0.0
2015-May-24 09:23N 34°37' E 135°26'0 0.0
2015-May-24 08:29N 34°37' E 135°26'0 0.0
2015-May-24 07:29N 34°37' E 135°26'0 0.0
2015-May-24 06:23N 34°37' E 135°26'0 0.0
2015-May-24 05:17N 34°37' E 135°26'0 0.0
2015-May-24 04:29N 34°37' E 135°26'0 0.0
2015-May-24 03:29N 34°37' E 135°26'0 0.0
2015-May-24 02:29N 34°37' E 135°26'0 0.0
2015-May-24 01:29N 34°37' E 135°26'0 0.0
2015-May-24 00:29N 34°37' E 135°26'0 0.0
2015-May-23 23:29N 34°37' E 135°26'0 0.0
2015-May-23 22:17N 34°37' E 135°26'0 0.0
2015-May-23 21:29N 34°37' E 135°26'5 5.6
2015-May-23 20:33N 34°36' E 135°20'1717.3
2015-May-23 19:33N 34°37' E 134°59'3 0.1
2015-May-22 14:33N 34°36' E 134°56'1918.7
2015-May-22 13:33N 34°37' E 135°18'6 6.2
2015-May-22 12:31N 34°37' E 135°26'0 0.0
2015-May-22 11:31N 34°37' E 135°26'0 0.0
2015-May-22 10:19N 34°37' E 135°26'0 0.0
2015-May-22 09:31N 34°37' E 135°26'0 0.0
2015-May-22 08:19N 34°37' E 135°26'0 0.0
2015-May-22 07:25N 34°37' E 135°26'0 0.0
2015-May-22 06:31N 34°37' E 135°26'0 0.0
2015-May-22 05:31N 34°37' E 135°26'0 0.0
2015-May-22 04:19N 34°37' E 135°26'0 0.0
2015-May-22 03:31N 34°37' E 135°26'0 0.0
2015-May-22 02:31N 34°37' E 135°26'0 0.0
2015-May-22 01:19N 34°37' E 135°26'0 0.0
2015-May-22 00:31N 34°37' E 135°26'0 0.0
2015-May-21 23:31N 34°37' E 135°26'0 0.0
2015-May-21 21:31N 34°37' E 135°26'6 5.8
2015-May-21 20:33N 34°35' E 135°19'1717.0
2015-May-21 19:33N 34°37' E 134°59'4 0.1
2015-May-20 14:34N 34°37' E 134°54'2019.9
2015-May-20 13:33N 34°37' E 135°19'6 5.4
2015-May-20 12:26N 34°37' E 135°26'0 0.0
2015-May-20 11:32N 34°37' E 135°26'0 0.0
2015-May-20 10:32N 34°37' E 135°26'0 0.0
2015-May-20 09:32N 34°37' E 135°26'0 0.0
2015-May-20 08:32N 34°37' E 135°26'0 0.0
2015-May-20 07:26N 34°37' E 135°26'0 0.0
2015-May-20 06:32N 34°37' E 135°26'0 0.0
2015-May-20 05:26N 34°37' E 135°26'0 0.0
2015-May-20 04:26N 34°37' E 135°26'0 0.0
2015-May-20 03:32N 34°37' E 135°26'0 0.0
2015-May-20 02:26N 34°37' E 135°26'0 0.0
2015-May-20 01:32N 34°37' E 135°26'0 0.0
2015-May-20 00:32N 34°37' E 135°26'0 0.0
2015-May-19 23:17N 34°37' E 135°26'0 0.0
2015-May-19 22:23N 34°37' E 135°26'0 0.0
2015-May-19 21:23N 34°37' E 135°26'5 5.8
2015-May-19 20:33N 34°36' E 135°20'1717.3
2015-May-19 19:33N 34°37' E 134°59'2 0.1
2015-May-18 14:33N 34°37' E 134°56'1818.6
2015-May-18 13:34N 34°36' E 135°18'6 5.7
2015-May-18 12:29N 34°37' E 135°26'0 0.0
2015-May-18 11:29N 34°37' E 135°26'0 0.0
2015-May-18 10:23N 34°37' E 135°26'0 0.0
2015-May-18 09:29N 34°37' E 135°26'0 0.0
2015-May-18 08:29N 34°37' E 135°26'0 0.0
2015-May-18 07:11N 34°37' E 135°26'0 0.0
2015-May-18 06:29N 34°37' E 135°26'0 0.0
2015-May-18 05:23N 34°37' E 135°26'0 0.0
2015-May-18 04:29N 34°37' E 135°26'0 0.0
2015-May-18 03:29N 34°37' E 135°26'0 0.0
2015-May-18 02:29N 34°37' E 135°26'0 0.0
2015-May-18 01:17N 34°37' E 135°26'0 0.0
2015-May-18 00:23N 34°37' E 135°26'0 0.0
2015-May-17 23:29N 34°37' E 135°26'0 0.0
2015-May-17 22:29N 34°37' E 135°26'0 0.0
2015-May-17 21:29N 34°37' E 135°26'6 6.1
2015-May-17 20:33N 34°35' E 135°19'1716.4
2015-May-17 19:31N 34°37' E 134°59'1918.7
2015-May-17 18:29N 34°28' E 134°38'18 0.6
2015-May-16 14:33N 34°37' E 134°57'1717.6
2015-May-16 13:33N 34°36' E 135°18'6 5.8
2015-May-16 12:29N 34°37' E 135°26'0 0.0
2015-May-16 11:29N 34°37' E 135°26'0 0.0
2015-May-16 10:29N 34°37' E 135°26'0 0.0
2015-May-16 09:29N 34°37' E 135°26'0 0.0
2015-May-16 08:29N 34°37' E 135°26'0 0.0
2015-May-16 07:17N 34°37' E 135°26'0 0.0
2015-May-16 06:17N 34°37' E 135°26'0 0.0
2015-May-16 05:29N 34°37' E 135°26'0 0.0
2015-May-16 04:17N 34°37' E 135°26'0 0.0
2015-May-16 03:29N 34°37' E 135°26'0 0.0
2015-May-16 02:17N 34°37' E 135°26'0 0.0
2015-May-16 01:29N 34°37' E 135°26'0 0.0
2015-May-15 23:11N 34°37' E 135°26'0 0.0
2015-May-15 22:17N 34°37' E 135°26'0 0.0
2015-May-15 21:11N 34°37' E 135°26'5 8.0
2015-May-15 20:33N 34°36' E 135°20'1716.7
2015-May-15 19:33N 34°37' E 134°60'  

Dump ship's entire track history